Time;durP1;ratioP1;P1;durP2;ratioP2;P2;SDS_P1;SDS_P2;PMS_P1;PMS_P2;Temp;Humidity;BMP_temperature;BMP_pressure;BME280_temperature;BME280_humidity;BME280_pressure;Samples;Min_cycle;Max_cycle;Signal;HPM_P1;HPM_P2
2022/03/13 00:02:16;;;;;;;20.48;11.25;;;6.40;99.90;;;;;;5014223;28;20089;-79
2022/03/13 00:04:49;;;;;;;19.02;12.10;;;6.40;99.90;;;;;;5014012;28;20512;-79
2022/03/13 00:07:20;;;;;;;25.30;11.85;;;6.30;99.90;;;;;;5014112;28;20056;-79
2022/03/13 00:09:50;;;;;;;23.30;12.90;;;6.40;99.90;;;;;;5013904;28;20443;-79
2022/03/13 00:12:28;;;;;;;19.90;11.98;;;6.30;99.90;;;;;;5013878;28;20053;-79
2022/03/13 00:14:56;;;;;;;19.80;11.20;;;6.20;99.90;;;;;;5013974;28;20057;-79
2022/03/13 00:17:24;;;;;;;21.58;12.80;;;6.20;99.90;;;;;;5012820;28;20057;-79
2022/03/13 00:19:50;;;;;;;21.13;12.48;;;6.30;99.90;;;;;;5013444;28;20121;-79
2022/03/13 00:22:16;;;;;;;25.65;12.70;;;6.20;99.90;;;;;;5012210;28;20099;-79
2022/03/13 00:24:42;;;;;;;23.15;12.10;;;6.10;99.90;;;;;;5013718;28;20045;-79
2022/03/13 00:27:08;;;;;;;20.95;12.65;;;6.10;99.90;;;;;;5013649;28;20397;-78
2022/03/13 00:29:34;;;;;;;20.17;12.88;;;6.00;99.90;;;;;;5013095;28;20493;-79
2022/03/13 00:32:00;;;;;;;21.02;12.30;;;5.90;99.90;;;;;;5013425;28;20042;-79
2022/03/13 00:34:25;;;;;;;26.50;12.93;;;6.10;99.90;;;;;;5013505;28;20038;-79
2022/03/13 00:36:51;;;;;;;22.67;12.77;;;6.00;99.90;;;;;;5013444;28;20085;-80
2022/03/13 00:39:17;;;;;;;21.58;12.43;;;6.00;99.90;;;;;;5013448;28;20053;-79
2022/03/13 00:41:44;;;;;;;19.92;12.68;;;6.10;99.90;;;;;;5013564;28;20125;-79
2022/03/13 00:44:10;;;;;;;24.48;13.57;;;6.10;99.90;;;;;;5013297;28;20112;-79
2022/03/13 00:46:36;;;;;;;22.02;11.95;;;6.10;99.90;;;;;;5013367;28;20089;-79
2022/03/13 00:49:01;;;;;;;20.45;12.02;;;6.10;99.90;;;;;;5028588;28;20444;-79
2022/03/13 00:51:27;;;;;;;23.48;12.23;;;6.20;99.90;;;;;;5013261;28;20064;-79
2022/03/13 00:53:53;;;;;;;19.92;12.63;;;6.10;99.90;;;;;;5014017;28;20516;-80
2022/03/13 00:56:18;;;;;;;25.98;13.55;;;6.20;99.90;;;;;;5012311;28;20406;-79
2022/03/13 00:58:44;;;;;;;23.98;12.70;;;6.10;99.90;;;;;;5028666;28;20073;-79
2022/03/13 01:01:12;;;;;;;24.23;14.85;;;6.20;99.90;;;;;;5013618;28;20056;-79
2022/03/13 01:03:38;;;;;;;25.67;12.50;;;6.40;99.90;;;;;;5014422;28;20100;-79
2022/03/13 01:06:05;;;;;;;21.80;12.43;;;6.40;99.90;;;;;;5016089;28;20141;-79
2022/03/13 01:08:30;;;;;;;22.83;13.40;;;6.40;99.90;;;;;;5015675;28;20121;-79
2022/03/13 01:10:56;;;;;;;24.15;15.00;;;6.40;99.90;;;;;;5017123;28;20124;-80
2022/03/13 01:13:22;;;;;;;23.90;13.73;;;6.50;99.90;;;;;;5017055;28;20513;-79
2022/03/13 01:15:49;;;;;;;20.90;12.65;;;6.50;99.90;;;;;;5015890;28;20060;-80
2022/03/13 01:18:16;;;;;;;23.27;13.18;;;6.60;99.90;;;;;;5017412;28;20050;-80
2022/03/13 01:20:47;;;;;;;25.45;13.07;;;6.50;99.90;;;;;;5017092;28;20045;-79
2022/03/13 01:23:15;;;;;;;23.52;12.80;;;6.60;99.90;;;;;;5017296;28;20412;-80
2022/03/13 01:25:41;;;;;;;25.20;13.50;;;6.50;99.90;;;;;;5032739;28;20440;-80
2022/03/13 01:28:07;;;;;;;21.63;12.68;;;6.60;99.90;;;;;;5017977;28;20080;-79
2022/03/13 01:30:32;;;;;;;21.17;12.82;;;6.50;99.90;;;;;;5019112;28;20038;-79
2022/03/13 01:32:58;;;;;;;22.75;12.65;;;6.60;99.90;;;;;;5034465;28;20515;-79
2022/03/13 01:35:24;;;;;;;21.42;13.00;;;6.50;99.90;;;;;;5019392;28;20042;-79
2022/03/13 01:37:51;;;;;;;20.63;11.98;;;6.50;99.90;;;;;;5037166;28;20552;-79
2022/03/13 01:40:23;;;;;;;23.52;14.18;;;6.50;99.90;;;;;;5023511;28;20052;-79
2022/03/13 01:42:50;;;;;;;20.17;13.25;;;6.40;99.90;;;;;;5021671;28;20045;-79
2022/03/13 01:45:18;;;;;;;22.00;12.95;;;6.40;99.90;;;;;;5021870;28;20058;-79
2022/03/13 01:47:45;;;;;;;22.33;12.63;;;6.40;99.90;;;;;;5019327;28;20497;-78
2022/03/13 01:50:13;;;;;;;22.17;13.18;;;6.40;99.90;;;;;;5018545;28;20515;-79
2022/03/13 01:52:44;;;;;;;20.95;12.48;;;6.40;99.90;;;;;;5017553;28;20062;-79
2022/03/13 01:55:09;;;;;;;22.60;12.65;;;6.50;99.90;;;;;;5017995;28;20436;-79
2022/03/13 01:57:37;;;;;;;21.42;11.48;;;6.40;99.90;;;;;;5016248;28;20096;-79
2022/03/13 02:00:04;;;;;;;24.23;13.10;;;6.50;99.90;;;;;;5015860;28;20045;-79
2022/03/13 02:02:33;;;;;;;21.88;12.63;;;6.60;99.90;;;;;;5015879;28;20053;-79
2022/03/13 02:04:58;;;;;;;24.95;13.25;;;6.60;99.90;;;;;;5015038;28;20457;-80
2022/03/13 02:07:27;;;;;;;20.63;12.13;;;6.60;99.90;;;;;;5015567;28;20127;-79
2022/03/13 02:09:53;;;;;;;21.98;13.35;;;6.70;99.90;;;;;;5015825;28;20045;-79
2022/03/13 02:12:20;;;;;;;22.67;12.40;;;6.70;99.90;;;;;;5014769;28;20064;-79
2022/03/13 02:14:48;;;;;;;23.80;13.70;;;6.70;99.90;;;;;;5015739;28;20563;-79
2022/03/13 02:17:24;;;;;;;20.52;12.48;;;6.70;99.90;;;;;;5015176;28;20049;-79
2022/03/13 02:19:51;;;;;;;24.20;12.95;;;6.80;99.90;;;;;;5014265;28;20042;-79
2022/03/13 02:22:18;;;;;;;22.98;12.43;;;6.80;99.90;;;;;;5015675;28;20042;-79
2022/03/13 02:24:48;;;;;;;23.80;13.65;;;6.80;99.90;;;;;;5015746;28;20046;-79
2022/03/13 02:27:20;;;;;;;22.98;13.02;;;6.90;99.90;;;;;;5015564;28;20049;-79
2022/03/13 02:29:45;;;;;;;19.33;11.40;;;6.90;99.90;;;;;;5015645;28;20042;-79
2022/03/13 02:32:11;;;;;;;22.40;12.77;;;6.90;99.90;;;;;;5015581;28;20040;-79
2022/03/13 02:34:36;;;;;;;26.40;13.32;;;6.80;99.90;;;;;;5015550;28;20045;-79
2022/03/13 02:37:04;;;;;;;19.70;12.25;;;6.90;99.90;;;;;;5015565;28;20038;-79
2022/03/13 02:39:35;;;;;;;21.50;13.13;;;6.90;99.90;;;;;;5014242;28;20086;-79
2022/03/13 02:44:31;;;;;;;21.13;12.63;;;6.80;99.90;;;;;;5110867;22;20052;-95
2022/03/13 02:47:06;;;;;;;23.77;13.10;;;7.30;99.90;;;;;;5023981;28;20022;-96
2022/03/13 02:49:33;;;;;;;20.83;12.70;;;6.80;99.90;;;;;;5023362;28;20018;-95
2022/03/13 02:52:04;;;;;;;20.33;13.20;;;6.70;99.90;;;;;;5023801;28;20018;-95
2022/03/13 02:54:33;;;;;;;20.15;12.73;;;6.70;99.90;;;;;;5023867;28;20017;-96
2022/03/13 02:56:59;;;;;;;21.27;14.20;;;6.50;99.90;;;;;;5023842;28;20057;-95
2022/03/13 02:59:25;;;;;;;22.00;12.90;;;6.50;99.90;;;;;;5023680;28;20022;-95
2022/03/13 03:01:52;;;;;;;23.98;13.20;;;7.40;99.90;;;;;;5040137;28;20028;-95
2022/03/13 03:04:22;;;;;;;21.63;14.05;;;6.70;99.90;;;;;;5023820;28;20053;-96
2022/03/13 03:06:59;;;;;;;22.48;13.73;;;7.00;99.90;;;;;;5023757;28;20028;-95
2022/03/13 03:09:26;;;;;;;20.23;12.75;;;6.70;99.90;;;;;;5023734;28;20014;-95
2022/03/13 03:11:53;;;;;;;22.13;12.82;;;6.80;99.90;;;;;;5023611;28;20022;-95
2022/03/13 03:14:20;;;;;;;27.50;14.30;;;6.40;99.90;;;;;;5023546;28;20088;-95
2022/03/13 03:16:45;;;;;;;25.10;12.88;;;6.40;99.90;;;;;;5023508;28;20022;-95
2022/03/13 03:19:11;;;;;;;25.60;13.40;;;7.00;99.90;;;;;;5023223;28;20081;-95
2022/03/13 03:21:39;;;;;;;24.55;13.57;;;6.60;99.90;;;;;;5039693;28;20020;-95
2022/03/13 03:24:20;;;;;;;20.95;14.27;;;6.30;99.90;;;;;;5039756;28;20014;-96
2022/03/13 03:26:46;;;;;;;27.73;13.30;;;6.10;99.90;;;;;;5023310;28;20077;-96
2022/03/13 03:29:13;;;;;;;22.20;14.05;;;6.90;99.90;;;;;;5023405;28;20037;-96
2022/03/13 03:31:41;;;;;;;25.05;13.80;;;6.00;99.90;;;;;;5023293;28;20018;-95
2022/03/13 03:34:12;;;;;;;22.92;14.60;;;6.00;99.90;;;;;;5023168;28;20033;-96
2022/03/13 03:36:42;;;;;;;20.45;13.73;;;6.50;99.90;;;;;;5039621;28;20018;-95
2022/03/13 03:39:10;;;;;;;21.80;13.48;;;6.10;99.90;;;;;;5023048;28;20095;-95
2022/03/13 03:41:36;;;;;;;29.30;14.77;;;6.70;99.90;;;;;;5023162;28;20010;-95
2022/03/13 03:44:01;;;;;;;25.42;12.60;;;6.60;99.90;;;;;;5022698;28;20030;-96
2022/03/13 03:46:27;;;;;;;22.20;13.48;;;6.80;99.90;;;;;;5023022;28;20026;-95
2022/03/13 03:48:53;;;;;;;22.35;12.30;;;5.60;99.90;;;;;;5022974;28;20030;-95
2022/03/13 03:51:18;;;;;;;21.27;13.73;;;6.40;99.90;;;;;;5022952;28;20032;-95
2022/03/13 03:53:44;;;;;;;27.08;13.02;;;5.00;99.90;;;;;;5023159;28;20018;-96
2022/03/13 03:56:11;;;;;;;23.38;13.60;;;6.20;99.90;;;;;;5021051;28;20086;-95
2022/03/13 03:58:37;;;;;;;25.00;14.57;;;5.60;99.90;;;;;;5039398;28;20026;-96
2022/03/13 04:01:03;;;;;;;20.60;13.90;;;6.10;99.90;;;;;;5022956;28;20025;-95
2022/03/13 04:03:30;;;;;;;21.17;12.90;;;5.50;99.90;;;;;;5022992;28;20109;-96
2022/03/13 04:05:55;;;;;;;23.42;13.60;;;5.10;99.90;;;;;;5039276;28;20018;-96
2022/03/13 04:08:21;;;;;;;26.10;13.77;;;5.00;99.90;;;;;;5038438;28;20030;-96
2022/03/13 04:10:50;;;;;;;29.45;15.95;;;5.80;99.90;;;;;;5039232;28;20350;-96
2022/03/13 04:13:16;;;;;;;32.38;14.98;;;4.90;99.90;;;;;;5022933;28;20018;-96
2022/03/13 04:15:42;;;;;;;24.08;14.10;;;5.10;99.90;;;;;;5039119;28;20046;-95
2022/03/13 04:18:10;;;;;;;25.30;15.48;;;5.70;99.90;;;;;;5022660;28;20014;-96
2022/03/13 04:20:36;;;;;;;28.17;14.05;;;5.50;99.90;;;;;;5022698;28;20032;-95
2022/03/13 04:23:02;;;;;;;23.35;14.18;;;4.50;99.90;;;;;;5038991;28;20046;-95
2022/03/13 04:25:28;;;;;;;25.40;13.63;;;5.40;99.90;;;;;;5038881;28;20022;-95
2022/03/13 04:27:59;;;;;;;26.00;14.40;;;4.60;99.90;;;;;;5022492;28;20022;-95
2022/03/13 04:30:29;;;;;;;24.35;13.90;;;4.40;99.90;;;;;;5022634;28;20049;-96
2022/03/13 04:32:57;;;;;;;27.80;12.95;;;5.20;99.90;;;;;;5022638;28;20029;-96
2022/03/13 04:35:24;;;;;;;23.85;13.32;;;5.50;99.90;;;;;;5022514;28;20084;-96
2022/03/13 04:37:51;;;;;;;21.95;13.65;;;4.90;99.90;;;;;;5022479;28;20026;-96
2022/03/13 04:40:17;;;;;;;25.63;13.15;;;5.00;99.90;;;;;;5025555;28;20026;-95
2022/03/13 04:42:43;;;;;;;23.00;13.20;;;5.00;99.90;;;;;;5026011;28;20017;-95
2022/03/13 04:45:08;;;;;;;24.95;13.88;;;4.60;99.90;;;;;;5042855;28;20085;-96
2022/03/13 04:47:34;;;;;;;24.60;13.73;;;5.00;99.90;;;;;;5026179;28;20036;-95
2022/03/13 04:50:00;;;;;;;25.50;14.15;;;4.90;99.90;;;;;;5026230;28;20018;-94
2022/03/13 04:52:27;;;;;;;25.40;14.25;;;5.00;99.90;;;;;;5026165;28;20010;-96
2022/03/13 04:54:53;;;;;;;25.35;14.57;;;4.90;99.90;;;;;;5026118;28;20014;-94
2022/03/13 04:57:20;;;;;;;25.17;13.27;;;4.40;99.90;;;;;;5026094;28;20032;-94
2022/03/13 04:59:45;;;;;;;25.42;14.00;;;4.50;99.90;;;;;;5042368;28;20049;-94
2022/03/13 05:02:11;;;;;;;27.15;13.57;;;4.30;99.90;;;;;;5026099;28;20044;-95
2022/03/13 05:04:38;;;;;;;22.15;13.43;;;4.50;99.90;;;;;;5042452;28;20010;-96
2022/03/13 05:07:04;;;;;;;25.38;14.52;;;4.80;99.90;;;;;;5025976;28;20018;-95
2022/03/13 05:09:29;;;;;;;27.75;14.68;;;4.70;99.90;;;;;;5025888;28;20028;-95
2022/03/13 05:11:55;;;;;;;24.27;14.32;;;4.30;99.90;;;;;;5025939;28;20018;-94
2022/03/13 05:14:21;;;;;;;22.35;12.98;;;4.00;99.90;;;;;;5025832;28;20021;-95
2022/03/13 05:16:47;;;;;;;22.98;12.68;;;3.90;99.90;;;;;;5025809;28;20028;-94
2022/03/13 05:19:12;;;;;;;24.98;15.05;;;4.50;99.90;;;;;;5025553;28;20049;-95
2022/03/13 05:21:39;;;;;;;32.63;15.85;;;4.30;99.90;;;;;;5025642;28;20087;-95
2022/03/13 05:24:05;;;;;;;26.83;13.75;;;4.40;99.90;;;;;;5042053;28;20020;-94
2022/03/13 05:26:32;;;;;;;25.20;14.70;;;4.00;99.90;;;;;;5025584;28;20018;-94
2022/03/13 05:28:57;;;;;;;24.35;13.82;;;3.80;99.90;;;;;;5025539;28;20025;-95
2022/03/13 05:31:23;;;;;;;22.63;13.35;;;4.20;99.90;;;;;;5025398;28;20022;-95
2022/03/13 05:33:49;;;;;;;27.40;13.65;;;3.60;99.90;;;;;;5025398;28;20026;-95
2022/03/13 05:36:15;;;;;;;27.65;15.48;;;3.60;99.90;;;;;;5041814;28;20029;-96
2022/03/13 05:38:41;;;;;;;23.35;13.95;;;3.50;99.90;;;;;;5041730;28;20032;-95
2022/03/13 05:41:07;;;;;;;23.15;13.50;;;3.60;99.90;;;;;;5025246;28;20018;-95
2022/03/13 05:43:33;;;;;;;21.80;13.32;;;3.70;99.90;;;;;;5024736;28;20097;-95
2022/03/13 05:46:02;;;;;;;25.67;12.63;;;3.60;99.90;;;;;;5025186;28;20033;-95
2022/03/13 05:48:32;;;;;;;23.75;12.65;;;4.20;99.90;;;;;;5041345;28;20064;-95
2022/03/13 05:50:58;;;;;;;26.90;14.32;;;4.20;99.90;;;;;;5023303;28;20109;-95
2022/03/13 05:53:24;;;;;;;23.10;12.52;;;3.90;99.90;;;;;;5023971;28;20038;-95
2022/03/13 05:55:58;;;;;;;24.20;12.65;;;3.80;99.90;;;;;;5008760;28;20014;-95
2022/03/13 05:58:24;;;;;;;21.25;12.45;;;4.00;99.90;;;;;;5024903;28;20018;-95
2022/03/13 06:01:01;;;;;;;20.63;12.00;;;3.90;99.90;;;;;;5024809;28;20021;-96
2022/03/13 06:03:27;;;;;;;22.83;12.88;;;4.00;99.90;;;;;;5024858;28;20081;-96
2022/03/13 06:05:57;;;;;;;21.70;12.63;;;5.10;99.90;;;;;;5024835;28;20028;-94
2022/03/13 06:08:23;;;;;;;19.45;11.90;;;4.40;99.90;;;;;;5024671;28;20014;-96
2022/03/13 06:10:50;;;;;;;24.52;13.15;;;4.60;99.90;;;;;;5024722;28;20061;-95
2022/03/13 06:13:22;;;;;;;17.88;10.88;;;4.50;99.90;;;;;;5008685;28;20029;-95
2022/03/13 06:15:51;;;;;;;19.50;12.18;;;3.90;99.90;;;;;;5024725;28;20029;-95
2022/03/13 06:18:17;;;;;;;23.38;12.23;;;4.70;99.90;;;;;;5040950;28;20022;-95
2022/03/13 06:20:43;;;;;;;20.08;10.73;;;4.90;99.90;;;;;;5040939;28;20040;-95
2022/03/13 06:23:13;;;;;;;18.88;11.13;;;5.30;99.90;;;;;;5024517;28;20014;-95
2022/03/13 06:25:45;;;;;;;19.45;11.90;;;4.70;99.90;;;;;;5024936;28;20038;-95
2022/03/13 06:28:13;;;;;;;18.00;11.02;;;5.00;99.90;;;;;;5007802;28;20014;-95
2022/03/13 06:30:39;;;;;;;21.10;11.75;;;5.30;99.90;;;;;;5023562;28;20107;-95
2022/03/13 06:33:10;;;;;;;19.25;11.40;;;5.00;99.90;;;;;;5023647;28;20021;-94
2022/03/13 06:35:35;;;;;;;18.45;11.00;;;5.00;99.90;;;;;;5023607;28;20032;-95
2022/03/13 06:38:01;;;;;;;20.33;11.32;;;4.90;99.90;;;;;;5007113;28;20037;-95
2022/03/13 06:40:27;;;;;;;20.83;10.85;;;5.10;99.90;;;;;;5023461;28;20014;-95
2022/03/13 06:42:56;;;;;;;19.17;10.18;;;5.30;99.90;;;;;;5023089;28;20014;-94
2022/03/13 06:45:23;;;;;;;23.02;11.07;;;5.60;99.90;;;;;;5023433;28;20041;-94
2022/03/13 06:47:49;;;;;;;22.15;12.85;;;5.00;99.90;;;;;;5023098;28;20091;-95
2022/03/13 06:50:20;;;;;;;22.30;11.85;;;5.90;99.90;;;;;;5039513;28;20026;-94
2022/03/13 06:52:47;;;;;;;21.98;12.10;;;5.10;99.90;;;;;;5023668;28;20021;-95
2022/03/13 06:55:13;;;;;;;19.83;10.70;;;4.90;99.90;;;;;;5023643;28;20022;-95
2022/03/13 06:57:42;;;;;;;22.15;11.02;;;5.60;99.90;;;;;;5023123;28;20077;-94
2022/03/13 07:00:10;;;;;;;20.02;10.50;;;5.10;99.90;;;;;;5023029;28;20298;-95
2022/03/13 07:02:36;;;;;;;18.75;10.63;;;5.20;99.90;;;;;;5006141;28;20045;-95
2022/03/13 07:08:28;;;;;;;18.55;10.77;;;5.30;99.90;;;;;;5040065;28;20082;-95
2022/03/13 07:10:54;;;;;;;17.23;9.60;;;5.80;99.90;;;;;;5022667;28;20033;-94
2022/03/13 07:13:22;;;;;;;22.08;11.80;;;5.20;99.90;;;;;;5039193;28;20077;-94
2022/03/13 07:15:48;;;;;;;18.73;11.13;;;5.90;99.90;;;;;;5039185;28;20082;-95
2022/03/13 07:18:14;;;;;;;20.13;10.93;;;5.00;99.90;;;;;;5022437;28;20022;-95
2022/03/13 07:20:51;;;;;;;23.27;11.00;;;5.30;99.90;;;;;;5022628;28;20054;-95
2022/03/13 07:23:19;;;;;;;19.38;12.07;;;5.40;99.90;;;;;;5022731;28;20025;-94
2022/03/13 07:25:46;;;;;;;29.63;11.95;;;5.10;99.90;;;;;;5022693;28;20022;-95
2022/03/13 07:28:13;;;;;;;17.40;10.82;;;5.50;99.90;;;;;;5006624;28;20021;-95
2022/03/13 07:30:38;;;;;;;20.70;12.38;;;5.10;99.90;;;;;;5022594;28;20030;-94
2022/03/13 07:33:04;;;;;;;23.85;10.98;;;5.10;99.90;;;;;;5022313;28;20048;-95
2022/03/13 07:35:38;;;;;;;21.73;11.85;;;5.90;99.90;;;;;;5038581;28;20014;-95
2022/03/13 07:38:05;;;;;;;19.67;12.10;;;6.10;99.90;;;;;;5022235;28;20040;-95
2022/03/13 07:40:31;;;;;;;22.27;12.48;;;6.10;99.90;;;;;;5022784;28;20018;-95
2022/03/13 07:42:59;;;;;;;19.70;11.70;;;6.30;99.90;;;;;;5022080;28;20061;-95
2022/03/13 07:45:27;;;;;;;17.10;11.15;;;6.40;99.90;;;;;;5022199;28;20026;-94
2022/03/13 07:47:57;;;;;;;22.98;11.70;;;7.00;99.90;;;;;;5022465;28;20021;-94
2022/03/13 07:50:24;;;;;;;21.77;10.52;;;6.50;99.90;;;;;;5022129;28;20022;-94
2022/03/13 07:52:51;;;;;;;17.52;10.63;;;7.30;99.90;;;;;;5022045;28;20028;-94
2022/03/13 07:55:17;;;;;;;22.52;11.48;;;6.80;99.90;;;;;;5038440;28;20018;-94
2022/03/13 07:57:43;;;;;;;20.67;10.57;;;7.30;99.90;;;;;;5021938;28;20029;-93
2022/03/13 08:00:12;;;;;;;16.63;8.85;;;8.20;99.90;;;;;;5021716;28;20106;-93
2022/03/13 08:02:37;;;;;;;18.30;10.55;;;7.60;97.40;;;;;;5021859;28;20014;-94
2022/03/13 08:05:03;;;;;;;17.60;10.15;;;7.20;96.10;;;;;;5021746;28;20018;-93
2022/03/13 08:07:29;;;;;;;17.75;10.60;;;8.00;97.40;;;;;;5038289;28;20056;-94
2022/03/13 08:09:55;;;;;;;19.88;10.35;;;7.70;94.50;;;;;;5021719;28;20024;-94
2022/03/13 08:12:25;;;;;;;19.25;10.38;;;8.00;94.80;;;;;;5021854;28;20050;-95
2022/03/13 08:14:52;;;;;;;16.75;9.38;;;7.90;94.80;;;;;;5021320;28;20021;-94
2022/03/13 08:17:24;;;;;;;19.70;10.13;;;8.00;94.00;;;;;;5022253;28;20026;-94
2022/03/13 08:19:54;;;;;;;18.15;10.48;;;7.90;93.30;;;;;;5037595;28;20125;-94
2022/03/13 08:22:20;;;;;;;17.75;11.05;;;8.20;93.70;;;;;;5006592;28;20025;-94
2022/03/13 08:24:55;;;;;;;25.17;10.63;;;8.60;93.00;;;;;;5038422;28;20073;-94
2022/03/13 08:27:20;;;;;;;17.58;10.95;;;8.70;91.60;;;;;;5022071;28;20029;-95
2022/03/13 08:29:52;;;;;;;18.20;9.88;;;8.80;90.40;;;;;;5022252;28;20014;-95
2022/03/13 08:33:02;;;;;;;21.83;10.13;;;8.30;91.60;;;;;;5038822;28;20022;-96
2022/03/13 08:35:43;;;;;;;17.50;9.65;;;8.00;88.60;;;;;;5038101;28;20054;-95
2022/03/13 08:38:11;;;;;;;16.42;10.57;;;8.30;86.30;;;;;;5021277;28;20046;-95
2022/03/13 08:40:38;;;;;;;16.00;9.82;;;7.70;86.40;;;;;;5038408;28;20052;-95
2022/03/13 08:43:18;;;;;;;16.10;9.70;;;9.50;84.60;;;;;;5007821;28;20061;-95
2022/03/13 08:45:50;;;;;;;16.70;9.60;;;8.60;82.50;;;;;;5022538;28;20044;-96
2022/03/13 08:48:35;;;;;;;16.50;9.77;;;9.20;82.60;;;;;;5039297;28;20021;-96
2022/03/13 08:51:14;;;;;;;12.88;8.20;;;9.50;79.90;;;;;;5036118;28;20062;-96
2022/03/13 08:53:52;;;;;;;16.63;9.65;;;8.80;78.80;;;;;;5022863;28;20033;-95
2022/03/13 08:56:24;;;;;;;17.52;10.05;;;8.80;79.20;;;;;;5022910;28;20054;-96
2022/03/13 08:58:54;;;;;;;20.33;10.25;;;9.30;79.10;;;;;;5022687;28;20037;-95
2022/03/13 09:01:22;;;;;;;15.27;9.32;;;9.50;79.80;;;;;;5022001;28;20052;-96
2022/03/13 09:03:52;;;;;;;14.65;8.40;;;8.90;77.40;;;;;;5037995;28;20089;-95
2022/03/13 09:06:21;;;;;;;15.30;8.90;;;9.00;76.20;;;;;;5037149;28;20034;-96
2022/03/13 09:09:05;;;;;;;17.23;9.30;;;8.60;72.60;;;;;;5007600;28;20018;-95
2022/03/13 09:12:06;;;;;;;16.35;9.65;;;8.60;71.30;;;;;;5038548;28;20040;-96
2022/03/13 09:15:04;;;;;;;18.83;10.10;;;8.90;71.40;;;;;;5019774;28;20029;-96
2022/03/13 09:17:53;;;;;;;20.67;10.45;;;9.10;70.90;;;;;;5022194;28;20022;-96
2022/03/13 09:20:27;;;;;;;15.05;9.13;;;9.30;71.10;;;;;;5038481;28;20034;-96
2022/03/13 09:23:17;;;;;;;16.33;9.05;;;8.80;68.50;;;;;;5001108;28;20034;-96
2022/03/13 09:26:23;;;;;;;16.40;9.18;;;9.40;68.50;;;;;;4981641;28;20059;-96
2022/03/13 09:29:07;;;;;;;15.68;9.73;;;8.80;67.10;;;;;;5007344;28;20053;-96
2022/03/13 09:31:35;;;;;;;18.15;10.18;;;8.90;65.30;;;;;;4973300;28;20034;-96
2022/03/13 09:34:41;;;;;;;;;;;;;;;;;;;;;
2022/03/13 09:37:30;;;;;;;17.75;10.25;;;10.20;64.40;;;;;;5015271;28;20049;-96
2022/03/13 09:40:09;;;;;;;20.98;11.13;;;10.50;63.30;;;;;;5002315;28;20046;-96
2022/03/13 09:42:57;;;;;;;18.85;11.07;;;10.40;60.80;;;;;;4944196;29;20056;-95
2022/03/13 09:45:36;;;;;;;17.10;9.48;;;10.30;57.90;;;;;;4994962;28;20035;-96
2022/03/13 09:48:31;;;;;;;14.30;8.98;;;10.30;53.80;;;;;;5004501;28;20035;-96
2022/03/13 09:51:10;;;;;;;17.50;9.25;;;11.70;51.10;;;;;;5005410;28;20018;-96
2022/03/13 09:54:19;;;;;;;17.15;10.15;;;11.90;50.10;;;;;;4954866;29;20095;-96
2022/03/13 09:57:17;;;;;;;17.13;9.27;;;13.50;47.20;;;;;;5003046;28;20052;-96
2022/03/13 09:59:54;;;;;;;15.43;9.20;;;12.40;48.00;;;;;;5040818;28;20029;-96
2022/03/13 10:02:38;;;;;;;14.35;9.15;;;13.40;44.80;;;;;;5024498;28;20093;-96
2022/03/13 10:05:27;;;;;;;17.75;10.40;;;11.90;45.60;;;;;;5009626;28;20030;-96
2022/03/13 10:08:05;;;;;;;15.18;9.20;;;12.50;44.50;;;;;;5037200;28;20030;-96
2022/03/13 10:10:44;;;;;;;14.38;9.55;;;12.80;44.60;;;;;;5009080;28;20022;-96
2022/03/13 10:13:11;;;;;;;14.35;9.10;;;13.70;42.70;;;;;;5024965;28;20018;-96
2022/03/13 10:15:48;;;;;;;15.98;9.32;;;13.20;43.40;;;;;;5041470;28;20076;-96
2022/03/13 10:18:18;;;;;;;16.70;9.88;;;13.10;41.20;;;;;;5024926;28;20093;-96
2022/03/13 10:20:46;;;;;;;15.43;9.25;;;13.20;43.20;;;;;;5024856;28;20042;-96
2022/03/13 10:23:15;;;;;;;16.25;9.93;;;14.20;44.10;;;;;;5024807;28;20027;-96
2022/03/13 10:25:43;;;;;;;16.38;10.05;;;13.50;40.90;;;;;;5041163;28;20040;-96
2022/03/13 10:28:24;;;;;;;15.43;8.85;;;14.20;40.60;;;;;;5024612;28;20025;-95
2022/03/13 10:30:59;;;;;;;15.20;9.90;;;13.60;42.40;;;;;;5024536;28;20014;-94
2022/03/13 10:33:42;;;;;;;15.02;9.75;;;14.40;40.30;;;;;;5024739;28;20045;-95
2022/03/13 10:36:09;;;;;;;16.27;9.98;;;13.60;38.70;;;;;;5040570;28;20088;-96
2022/03/13 10:38:35;;;;;;;16.73;10.25;;;14.40;39.90;;;;;;5039938;28;20026;-96
2022/03/13 10:41:08;;;;;;;16.30;9.82;;;13.50;39.80;;;;;;5024358;28;20021;-96
2022/03/13 10:44:38;;;;;;;16.58;9.35;;;14.50;39.80;;;;;;5040797;28;20022;-95
2022/03/13 10:48:40;;;;;;;18.00;10.00;;;14.10;39.50;;;;;;5041135;28;20052;-95
2022/03/13 10:52:01;;;;;;;;;;;;;;;;;;;;;
2022/03/13 10:55:56;;;;;;;15.10;10.02;;;14.00;36.50;;;;;;5040806;28;20025;-96
2022/03/13 10:58:49;;;;;;;18.48;10.32;;;14.00;37.40;;;;;;5035936;28;20052;-96
2022/03/13 11:01:31;;;;;;;17.42;9.73;;;14.00;37.90;;;;;;4996096;28;20014;-96
2022/03/13 11:04:16;;;;;;;21.35;9.95;;;13.40;38.80;;;;;;5040217;28;20033;-96
2022/03/13 11:06:50;;;;;;;15.70;9.43;;;12.80;39.10;;;;;;5023323;28;20030;-96
2022/03/13 11:10:00;;;;;;;15.05;9.68;;;13.50;39.60;;;;;;5024514;28;20052;-96
2022/03/13 11:12:48;;;;;;;14.27;8.77;;;14.10;39.20;;;;;;5040484;28;20037;-96
2022/03/13 11:15:35;;;;;;;17.08;10.27;;;15.10;38.90;;;;;;5014969;28;20149;-96
2022/03/13 11:18:09;;;;;;;18.27;10.52;;;14.50;36.10;;;;;;5037096;28;20093;-96
2022/03/13 11:20:41;;;;;;;16.30;10.30;;;15.00;37.10;;;;;;5007250;28;20057;-96
2022/03/13 11:23:31;;;;;;;14.73;9.45;;;16.30;35.80;;;;;;5017872;28;20049;-96
2022/03/13 11:26:07;;;;;;;16.52;10.18;;;15.90;34.60;;;;;;5025112;28;20022;-96
2022/03/13 11:28:43;;;;;;;15.40;10.25;;;15.80;33.50;;;;;;4992187;28;20037;-95
2022/03/13 11:31:40;;;;;;;15.43;9.80;;;16.10;34.60;;;;;;5007680;28;20045;-96
2022/03/13 11:34:22;;;;;;;14.57;10.45;;;16.10;32.90;;;;;;5040374;28;20036;-96
2022/03/13 11:37:33;;;;;;;18.65;10.60;;;15.90;32.00;;;;;;5028681;28;20045;-96
2022/03/13 11:40:14;;;;;;;19.75;10.27;;;15.60;31.90;;;;;;5007423;28;20053;-96
2022/03/13 11:42:54;;;;;;;16.95;10.18;;;15.70;32.00;;;;;;5007348;28;20021;-96
2022/03/13 11:45:38;;;;;;;16.45;10.60;;;16.00;30.90;;;;;;4997237;28;20043;-96
2022/03/13 11:48:32;;;;;;;16.15;9.90;;;16.00;29.40;;;;;;5029134;28;20018;-96
2022/03/13 11:51:03;;;;;;;15.70;9.57;;;15.80;30.50;;;;;;5039905;28;20086;-96
2022/03/13 11:53:44;;;;;;;15.75;9.25;;;16.80;30.00;;;;;;5039755;28;20029;-96
2022/03/13 11:56:48;;;;;;;18.05;9.90;;;16.40;29.20;;;;;;5039782;28;20014;-95
2022/03/13 11:59:24;;;;;;;15.85;10.27;;;15.50;29.30;;;;;;5007698;28;20036;-95
2022/03/13 12:01:53;;;;;;;14.55;9.70;;;14.80;29.50;;;;;;5007856;28;20021;-95
2022/03/13 12:04:32;;;;;;;14.15;9.38;;;15.60;29.50;;;;;;5039376;28;20045;-96
2022/03/13 12:07:01;;;;;;;14.88;10.05;;;15.60;30.00;;;;;;5022696;28;20034;-96
2022/03/13 12:09:46;;;;;;;19.70;9.85;;;15.30;29.60;;;;;;5022842;28;20021;-95
2022/03/13 12:12:17;;;;;;;14.73;9.23;;;16.20;31.20;;;;;;5021487;28;20030;-95
2022/03/13 12:15:05;;;;;;;14.02;9.65;;;16.40;28.00;;;;;;4991116;28;20029;-96
2022/03/13 12:17:49;;;;;;;15.85;9.75;;;15.90;27.70;;;;;;5038411;28;20029;-93
2022/03/13 12:20:33;;;;;;;15.35;10.40;;;15.90;28.90;;;;;;5022094;28;20030;-94
2022/03/13 12:23:10;;;;;;;15.30;9.82;;;15.70;27.40;;;;;;5006703;28;20037;-95
2022/03/13 12:25:47;;;;;;;14.60;9.02;;;16.90;27.20;;;;;;5022254;28;20050;-95
2022/03/13 12:28:21;;;;;;;13.73;9.57;;;16.10;26.90;;;;;;4990968;28;20014;-95
2022/03/13 12:30:59;;;;;;;19.90;11.02;;;15.30;27.00;;;;;;5038839;28;20014;-96
2022/03/13 12:33:31;;;;;;;14.60;9.80;;;16.50;27.50;;;;;;5021935;28;20067;-95
2022/03/13 12:36:13;;;;;;;13.68;9.23;;;16.10;26.30;;;;;;5021066;28;20038;-95
2022/03/13 12:39:14;;;;;;;14.00;8.95;;;17.10;26.90;;;;;;5038179;28;20033;-95
2022/03/13 12:41:54;;;;;;;;;;;16.40;26.00;;;;;;4983017;28;20046;-95
2022/03/13 12:44:59;;;;;;;16.02;9.57;;;15.80;26.80;;;;;;4980608;28;19918;-96
2022/03/13 12:47:46;;;;;;;16.92;9.77;;;16.60;27.50;;;;;;4981574;28;20035;-95
2022/03/13 12:50:47;;;;;;;17.10;9.98;;;15.90;27.10;;;;;;4994686;28;20073;-95
2022/03/13 12:53:38;;;;;;;17.73;10.73;;;15.70;26.90;;;;;;4982385;28;20046;-96
2022/03/13 12:56:11;;;;;;;15.13;9.70;;;16.00;25.70;;;;;;4997528;28;20066;-95
2022/03/13 12:58:43;;;;;;;14.95;9.98;;;15.90;26.50;;;;;;4982924;28;20027;-95
2022/03/13 13:01:22;;;;;;;16.42;11.15;;;17.00;26.10;;;;;;4985303;28;20038;-96
2022/03/13 13:03:54;;;;;;;14.57;10.43;;;16.90;26.70;;;;;;4986325;28;20030;-96
2022/03/13 13:06:51;;;;;;;15.75;9.23;;;17.30;26.00;;;;;;4955060;28;20050;-96
2022/03/13 13:09:32;;;;;;;22.67;10.90;;;16.60;26.20;;;;;;4970963;28;20027;-96
2022/03/13 13:12:12;;;;;;;16.25;11.15;;;16.00;26.20;;;;;;4979832;28;20037;-96
2022/03/13 13:14:42;;;;;;;17.00;11.25;;;15.70;25.10;;;;;;5021437;28;20030;-96